createdAt,value
2022-08-17T00:04:11.801Z,19.19
2022-08-17T00:09:19.507Z,19.19
2022-08-17T00:14:27.809Z,19.12
2022-08-17T00:19:36.717Z,19.06
2022-08-17T00:24:45.706Z,19.06
2022-08-17T00:29:54.694Z,19.06
2022-08-17T00:45:00.088Z,19.06
2022-08-17T00:50:09.177Z,19.12
2022-08-17T00:55:18.319Z,19.12
2022-08-17T01:00:27.399Z,19.06
2022-08-17T01:05:36.401Z,18.94
2022-08-17T01:15:54.308Z,19
2022-08-17T01:21:03.202Z,19
2022-08-17T01:26:12.226Z,18.87
2022-08-17T01:31:21.233Z,19
2022-08-17T01:36:30.330Z,19.12
2022-08-17T01:41:39.451Z,19.06
2022-08-17T01:46:48.355Z,18.94
2022-08-17T01:51:57.231Z,18.69
2022-08-17T02:12:37.182Z,18.37
2022-08-17T02:22:07.950Z,18.06
2022-08-17T02:27:16.817Z,17.81
2022-08-17T02:37:34.749Z,17.62
2022-08-17T02:42:43.706Z,17.5
2022-08-17T03:02:46.702Z,17.12
2022-08-17T03:07:55.697Z,17.12
2022-08-17T03:13:04.692Z,17.25
2022-08-17T03:18:14.384Z,17.37
2022-08-17T03:23:23.904Z,17.37
2022-08-17T03:33:30.272Z,17.44
2022-08-17T03:38:39.626Z,17.44
2022-08-17T03:43:48.248Z,17.44
2022-08-17T03:49:00.226Z,17.44
2022-08-17T03:54:09.117Z,17.31
2022-08-17T03:59:20.932Z,17.25
2022-08-17T04:04:27.489Z,17.37
2022-08-17T04:09:36.230Z,17.5
2022-08-17T04:14:52.555Z,17.75
2022-08-17T04:25:03.417Z,18.62
2022-08-17T04:30:12.429Z,18.69
2022-08-17T04:35:21.413Z,18.69
2022-08-17T04:40:30.391Z,18.62
2022-08-17T04:45:39.271Z,18.56
2022-08-17T04:50:48.251Z,18.5
2022-08-17T04:55:57.245Z,18.56
2022-08-17T05:16:12.078Z,19
2022-08-17T05:21:21.052Z,19.25
2022-08-17T05:26:29.998Z,19.44
2022-08-17T05:31:39.020Z,19.37
2022-08-17T05:51:42.971Z,19.69
2022-08-17T05:56:52.090Z,19.87
2022-08-17T06:02:01.113Z,20
2022-08-17T06:07:10.049Z,20.06
2022-08-17T06:17:27.986Z,20.37
2022-08-17T06:22:37.067Z,20.56
2022-08-17T06:27:46.135Z,20.88
2022-08-17T06:32:55.242Z,21.12
2022-08-17T06:38:04.291Z,21.25
2022-08-17T06:43:13.856Z,21.31
2022-08-17T06:48:31.207Z,21.37
2022-08-17T06:53:40.328Z,21.37
2022-08-17T06:58:49.405Z,21.37
2022-08-17T07:03:58.267Z,21.31
2022-08-17T07:09:07.245Z,21.56
2022-08-17T07:14:17.444Z,21.69
2022-08-17T07:19:25.411Z,21.56
2022-08-17T07:24:34.350Z,21.44
2022-08-17T07:34:41.708Z,21.5
2022-08-17T07:39:59.049Z,21.5
2022-08-17T07:59:53.964Z,21.62
2022-08-17T08:05:03.227Z,21.94
2022-08-17T08:10:12.298Z,22.06
2022-08-17T08:20:37.814Z,22
2022-08-17T08:25:39.240Z,21.81
2022-08-17T08:30:48.163Z,21.75
2022-08-17T08:35:57.189Z,21.87
2022-08-17T08:41:06.456Z,22
2022-08-17T09:01:09.699Z,22
2022-08-17T09:06:32.076Z,22.06
2022-08-17T09:11:27.731Z,22.13
2022-08-17T09:21:48.105Z,22.37
2022-08-17T09:26:54.941Z,22.44
2022-08-17T09:32:03.989Z,22.69
2022-08-17T09:37:13.028Z,22.87
2022-08-17T09:42:22.038Z,22.94
2022-08-17T09:47:31.170Z,22.81
2022-08-17T09:52:40.238Z,23.19
2022-08-17T09:57:49.819Z,23.38
2022-08-17T10:02:58.765Z,23.62
2022-08-17T10:08:07.861Z,23.69
2022-08-17T10:13:18.302Z,23.69
2022-08-17T10:18:30.358Z,23.44
2022-08-17T10:23:34.756Z,23.25
2022-08-17T10:28:43.740Z,23.12
2022-08-17T10:33:52.759Z,22.87
2022-08-17T10:39:01.543Z,22.56
2022-08-17T10:54:06.904Z,22.62
2022-08-17T10:59:15.864Z,22.75
2022-08-17T11:04:25.175Z,22.94
2022-08-17T11:09:33.994Z,23.19
2022-08-17T11:14:43.276Z,23.62
2022-08-17T11:19:52.458Z,24.19
2022-08-17T11:25:01.621Z,24.44
2022-08-17T11:30:10.805Z,24.87
2022-08-17T11:35:20.538Z,25.88
2022-08-17T11:40:29.603Z,26.06
2022-08-17T11:45:38.560Z,26.37
2022-08-17T11:50:47.457Z,25.75
2022-08-17T11:55:56.492Z,26
2022-08-17T12:01:06.098Z,26.06
2022-08-17T12:06:14.676Z,26.56
2022-08-17T12:11:54.835Z,27.31
2022-08-17T12:16:33.363Z,27.44
2022-08-17T12:21:42.408Z,27.31
2022-08-17T12:26:51.367Z,27
2022-08-17T12:32:00.313Z,26.94
2022-08-17T12:37:09.366Z,26.94
2022-08-17T12:42:18.269Z,26.75
2022-08-17T12:47:29.435Z,26.69
2022-08-17T12:52:35.887Z,26.62
2022-08-17T12:57:44.767Z,26.37
2022-08-17T13:02:53.644Z,26.31
2022-08-17T13:08:02.845Z,26.44
2022-08-17T13:13:11.871Z,26.94
2022-08-17T13:18:21.067Z,27.25
2022-08-17T13:23:30.347Z,28.19
2022-08-17T13:28:40.165Z,29.94
2022-08-17T13:33:49.465Z,28.87
2022-08-17T13:38:57.971Z,28.5
2022-08-17T13:44:07.445Z,30.31
2022-08-17T13:49:16.786Z,31
2022-08-17T13:54:25.669Z,31.31
2022-08-17T13:59:48.226Z,31.25
2022-08-17T14:04:43.492Z,31.5
2022-08-17T14:09:52.414Z,31.25
2022-08-17T14:15:01.207Z,31.19
2022-08-17T14:20:10.299Z,31.44
2022-08-17T14:25:19.550Z,32.19
2022-08-17T14:30:29.649Z,33.06
2022-08-17T14:35:37.935Z,32.19
2022-08-17T14:40:46.697Z,32.88
2022-08-17T14:45:56.020Z,33.25
2022-08-17T14:51:05.063Z,33.56
2022-08-17T14:56:14.231Z,33.69
2022-08-17T15:01:23.203Z,34.38
2022-08-17T15:06:32.199Z,34.5
2022-08-17T15:11:41.268Z,34.44
2022-08-17T15:16:50.500Z,33.88
2022-08-17T15:21:59.724Z,33.25
2022-08-17T15:27:08.617Z,34.06
2022-08-17T15:32:17.995Z,35
2022-08-17T15:37:27.103Z,34.5
2022-08-17T15:42:35.925Z,33.56
2022-08-17T15:47:44.840Z,31.87
2022-08-17T15:52:53.702Z,31.19
2022-08-17T15:58:02.676Z,30.81
2022-08-17T16:03:15.540Z,30.12
2022-08-17T16:08:21.425Z,29.63
2022-08-17T16:13:29.430Z,29.56
2022-08-17T16:18:38.396Z,29.44
2022-08-17T16:23:47.481Z,29.25
2022-08-17T16:28:56.403Z,29.12
2022-08-17T16:34:16.538Z,29
2022-08-17T16:39:14.274Z,29.12
2022-08-17T16:44:23.172Z,28.81
2022-08-17T16:49:36.439Z,28.56
2022-08-17T16:54:41.140Z,28.38
2022-08-17T16:59:50.235Z,28.25
2022-08-17T17:05:02.120Z,28.06
2022-08-17T17:10:11.108Z,28.12
2022-08-17T17:15:22.050Z,27.94
2022-08-17T17:20:29.065Z,27.75
2022-08-17T17:25:38.091Z,27.5
2022-08-17T17:30:47.140Z,27.13
2022-08-17T17:35:56.053Z,26.87
2022-08-17T17:41:05.015Z,26.62
2022-08-17T17:46:26.913Z,26.37
2022-08-17T17:56:42.914Z,25.75
2022-08-17T18:01:29.947Z,25.56
2022-08-17T18:06:38.949Z,25.37
2022-08-17T18:11:50.742Z,25.19
2022-08-17T18:16:56.656Z,24.94
2022-08-17T18:22:06.721Z,24.81
2022-08-17T18:27:14.487Z,24.75
2022-08-17T18:32:23.520Z,24.5
2022-08-17T18:37:32.517Z,24.19
2022-08-17T18:42:41.379Z,24
2022-08-17T18:47:50.393Z,23.75
2022-08-17T18:53:01.736Z,23.56
2022-08-17T18:58:08.427Z,23.44
2022-08-17T19:03:17.460Z,23.25
2022-08-17T19:08:26.210Z,23.12
2022-08-17T19:13:35.116Z,23
2022-08-17T19:23:53.591Z,22.81
2022-08-17T19:29:02.251Z,22.75
2022-08-17T19:34:11.132Z,22.62
2022-08-17T19:39:20.035Z,22.5
2022-08-17T19:49:33.094Z,22.19
2022-08-17T19:54:36.088Z,22.13
2022-08-17T20:04:43.426Z,21.94
2022-08-17T20:09:52.364Z,21.81
2022-08-17T20:15:01.478Z,21.69
2022-08-17T20:20:19.487Z,21.56
2022-08-17T20:25:19.195Z,21.37
2022-08-17T20:30:28.188Z,21.25
2022-08-17T20:35:37.156Z,21
2022-08-17T20:40:46.088Z,20.88
2022-08-17T20:45:55.023Z,20.75
2022-08-17T20:51:03.974Z,20.69
2022-08-17T20:56:13.016Z,20.56
2022-08-17T21:01:21.994Z,20.44
2022-08-17T21:06:31.142Z,20.37
2022-08-17T21:11:56.477Z,20.37
2022-08-17T21:16:49.120Z,20.25
2022-08-17T21:21:58.131Z,20.19
2022-08-17T21:27:07.131Z,20.12
2022-08-17T21:32:19.162Z,20.06
2022-08-17T21:37:25.140Z,20
2022-08-17T21:42:34.210Z,19.94
2022-08-17T21:52:52.117Z,19.94
2022-08-17T21:58:08.624Z,19.94
2022-08-17T22:03:10.252Z,19.87
2022-08-17T22:08:19.207Z,19.81
2022-08-17T22:13:29.545Z,19.75
2022-08-17T22:18:37.294Z,19.75
2022-08-17T22:23:46.297Z,19.69
2022-08-17T22:34:04.120Z,19.62
2022-08-17T22:39:13.131Z,19.69
2022-08-17T22:44:22.147Z,19.62
2022-08-17T22:49:31.139Z,19.62
2022-08-17T22:54:40.136Z,19.81
2022-08-17T22:59:49.354Z,20.06
2022-08-17T23:14:55.559Z,21.25
2022-08-17T23:30:01.386Z,21.37
2022-08-17T23:35:10.523Z,21.69
2022-08-17T23:40:19.788Z,21.94
2022-08-17T23:45:28.801Z,22
2022-08-17T23:50:38.011Z,22.13
2022-08-17T23:55:46.857Z,22.06
